Time;durP1;ratioP1;P1;durP2;ratioP2;P2;SDS_P1;SDS_P2;PMS_P1;PMS_P2;Temp;Humidity;BMP_temperature;BMP_pressure;BME280_temperature;BME280_humidity;BME280_pressure;Samples;Min_cycle;Max_cycle;Signal;HPM_P1;HPM_P2
2021/09/16 00:02:07;;;;;;;;;;;12.80;99.90;;;;;;4998328;28;19949;-86
2021/09/16 00:04:35;;;;;;;;;;;12.70;99.90;;;;;;5005038;28;19965;-85
2021/09/16 00:07:05;;;;;;;;;;;12.70;99.90;;;;;;5009262;28;20456;-85
2021/09/16 00:09:32;;;;;;;;;;;12.70;99.90;;;;;;4997855;28;20020;-85
2021/09/16 00:12:02;;;;;;;;;;;12.60;99.90;;;;;;5006686;28;19929;-85
2021/09/16 00:14:29;;;;;;;;;;;12.60;99.90;;;;;;5009172;28;19926;-84
2021/09/16 00:16:56;;;;;;;;;;;12.60;99.90;;;;;;5009131;28;19937;-85
2021/09/16 00:19:23;;;;;;;;;;;12.60;99.90;;;;;;4999978;28;19979;-86
2021/09/16 00:21:51;;;;;;;;;;;12.60;99.90;;;;;;5009138;28;20360;-87
2021/09/16 00:24:27;;;;;;;;;;;12.60;99.90;;;;;;5003873;28;19926;-87
2021/09/16 00:26:55;;;;;;;;;;;12.60;99.90;;;;;;5008191;28;19984;-86
2021/09/16 00:29:25;;;;;;;;;;;12.60;99.90;;;;;;5007827;28;19933;-87
2021/09/16 00:31:55;;;;;;;;;;;12.50;99.90;;;;;;5009312;28;19953;-86
2021/09/16 00:37:06;;;;;;;;;;;12.50;99.90;;;;;;5003157;28;20016;-86
2021/09/16 00:39:39;;;;;;;;;;;12.50;99.90;;;;;;5013501;28;20018;-86
2021/09/16 00:42:06;;;;;;;;;;;12.50;99.90;;;;;;5004899;28;19929;-86
2021/09/16 00:44:35;;;;;;;;;;;12.40;99.90;;;;;;5003661;28;19976;-87
2021/09/16 00:47:08;;;;;;;;;;;12.40;99.90;;;;;;4997987;28;19933;-87
2021/09/16 00:49:38;;;;;;;;;;;12.40;99.90;;;;;;5006965;28;20022;-85
2021/09/16 00:52:08;;;;;;;;;;;12.30;99.90;;;;;;5010217;28;19931;-86
2021/09/16 00:54:35;;;;;;;;;;;12.40;99.90;;;;;;5002515;28;19969;-87
2021/09/16 00:57:03;;;;;;;;;;;12.30;99.90;;;;;;5007499;28;19936;-87
2021/09/16 00:59:33;;;;;;;;;;;12.30;99.90;;;;;;5007023;28;20427;-87
2021/09/16 01:02:03;;;;;;;;;;;12.40;99.90;;;;;;5002253;28;19932;-86
2021/09/16 01:04:31;;;;;;;;;;;12.40;99.90;;;;;;5003780;28;19933;-86
2021/09/16 01:07:14;;;;;;;;;;;12.30;99.90;;;;;;5010053;28;19935;-87
2021/09/16 01:09:46;;;;;;;;;;;12.30;99.90;;;;;;5005889;28;20040;-86
2021/09/16 01:12:16;;;;;;;;;;;12.30;99.90;;;;;;5001119;28;19936;-87
2021/09/16 01:14:47;;;;;;;;;;;12.30;99.90;;;;;;5004515;28;20362;-85
2021/09/16 01:17:22;;;;;;;;;;;12.20;99.90;;;;;;5001481;28;20372;-85
2021/09/16 01:19:54;;;;;;;;;;;12.20;99.90;;;;;;4995270;28;20304;-87
2021/09/16 01:22:26;;;;;;;;;;;12.20;99.90;;;;;;4997161;28;19932;-86
2021/09/16 01:25:03;;;;;;;;;;;12.20;99.90;;;;;;4996480;28;20025;-86
2021/09/16 01:27:30;;;;;;;;;;;12.20;99.90;;;;;;5003471;28;19961;-86
2021/09/16 01:29:57;;;;;;;;;;;12.20;99.90;;;;;;5003660;28;19935;-86
2021/09/16 01:32:24;;;;;;;;;;;12.20;99.90;;;;;;5011144;28;19930;-86
2021/09/16 01:34:50;;;;;;;;;;;12.20;99.90;;;;;;5003751;28;20409;-85
2021/09/16 01:37:17;;;;;;;;;;;12.30;99.90;;;;;;5010179;28;19999;-86
2021/09/16 01:39:47;;;;;;;;;;;12.30;99.90;;;;;;4999663;28;19925;-85
2021/09/16 01:42:15;;;;;;;;;;;12.30;99.90;;;;;;5003655;28;19926;-86
2021/09/16 01:44:45;;;;;;;;;;;12.40;99.90;;;;;;5004590;28;19926;-87
2021/09/16 01:47:12;;;;;;;;;;;12.40;99.90;;;;;;4997497;28;19932;-86
2021/09/16 01:49:50;;;;;;;;;;;12.50;99.90;;;;;;5010013;28;20032;-87
2021/09/16 01:52:17;;;;;;;;;;;12.50;99.90;;;;;;5018280;28;19949;-87
2021/09/16 01:54:47;;;;;;;;;;;12.60;99.90;;;;;;5003007;28;19969;-88
2021/09/16 01:57:18;;;;;;;;;;;12.60;99.90;;;;;;5017553;28;19991;-85
2021/09/16 01:59:48;;;;;;;;;;;12.70;99.90;;;;;;5024699;28;19925;-87
2021/09/16 02:07:58;;;;;;;;;;;12.80;99.90;;;;;;4963353;29;19914;-85
2021/09/16 02:13:37;;;;;;;;;;;12.80;99.90;;;;;;4929193;29;19934;-86
2021/09/16 02:16:05;;;;;;;;;;;12.70;99.90;;;;;;4974819;28;20354;-86
2021/09/16 02:18:31;;;;;;;;;;;12.70;99.90;;;;;;5004496;28;19925;-87
2021/09/16 02:20:58;;;;;;;;;;;12.60;99.90;;;;;;5007742;28;20012;-86
2021/09/16 02:23:26;;;;;;;;;;;12.70;99.90;;;;;;5003917;28;19948;-86
2021/09/16 02:25:53;;;;;;;;;;;12.70;99.90;;;;;;5005528;28;19929;-86
2021/09/16 02:31:15;;;;;;;;;;;12.80;99.90;;;;;;5003258;28;19925;-87
2021/09/16 02:33:42;;;;;;;;;;;12.80;99.90;;;;;;4996709;28;20302;-88
2021/09/16 02:36:11;;;;;;;;;;;12.80;99.90;;;;;;5011343;28;20000;-86
2021/09/16 02:38:47;;;;;;;;;;;12.70;99.90;;;;;;5006535;28;19926;-87
2021/09/16 02:41:15;;;;;;;;;;;12.70;99.90;;;;;;5012943;28;19926;-87
2021/09/16 02:46:27;;;;;;;;;;;12.70;99.90;;;;;;5007865;28;19965;-88
2021/09/16 02:49:05;;;;;;;;;;;12.60;99.90;;;;;;5000891;28;19969;-85
2021/09/16 02:51:34;;;;;;;;;;;12.50;99.90;;;;;;5001283;28;19930;-88
2021/09/16 02:54:03;;;;;;;;;;;12.50;99.90;;;;;;4996983;28;19976;-87
2021/09/16 02:56:45;;;;;;;;;;;;;;;;;;;;;
2021/09/16 02:59:21;;;;;;;;;;;12.50;99.90;;;;;;5002548;28;19929;-85
2021/09/16 03:01:55;;;;;;;;;;;12.50;99.90;;;;;;5001421;28;20452;-84
2021/09/16 03:04:33;;;;;;;;;;;12.40;99.90;;;;;;4998972;28;19926;-86
2021/09/16 03:07:04;;;;;;;;;;;12.40;99.90;;;;;;4996157;28;19976;-83
2021/09/16 03:09:34;;;;;;;;;;;12.40;99.90;;;;;;4996422;28;20286;-83
2021/09/16 03:12:13;;;;;;;;;;;12.40;99.90;;;;;;5003901;28;20019;-83
2021/09/16 03:14:40;;;;;;;;;;;12.30;99.90;;;;;;5005372;28;19933;-85
2021/09/16 03:17:08;;;;;;;;;;;12.30;99.90;;;;;;5012322;28;20024;-84
2021/09/16 03:19:35;;;;;;;;;;;12.30;99.90;;;;;;5012393;28;19933;-83
2021/09/16 03:22:18;;;;;;;;;;;12.20;99.90;;;;;;5011107;28;19949;-85
2021/09/16 03:24:47;;;;;;;;;;;12.20;99.90;;;;;;5005448;28;19926;-84
2021/09/16 03:27:14;;;;;;;;;;;12.20;99.90;;;;;;5015339;28;19969;-85
2021/09/16 03:29:45;;;;;;;;;;;12.10;99.90;;;;;;5012853;28;19926;-84
2021/09/16 03:32:13;;;;;;;;;;;12.20;99.90;;;;;;5008360;28;20336;-85
2021/09/16 03:34:40;;;;;;;;;;;12.10;99.90;;;;;;5003463;28;19926;-86
2021/09/16 03:37:13;;;;;;;;;;;12.20;99.90;;;;;;5010863;28;20487;-84
2021/09/16 03:39:39;;;;;;;;;;;12.20;99.90;;;;;;5000574;28;20298;-84
2021/09/16 03:42:06;;;;;;;;;;;12.20;99.90;;;;;;5012878;28;20436;-78
2021/09/16 03:44:37;;;;;;;;;;;12.10;99.90;;;;;;5001741;28;20012;-85
2021/09/16 03:47:04;;;;;;;;;;;12.10;99.90;;;;;;5011542;28;20659;-84
2021/09/16 03:49:38;;;;;;;;;;;12.10;99.90;;;;;;5011337;28;19929;-85
2021/09/16 03:52:05;;;;;;;;;;;12.20;99.90;;;;;;5005548;28;19933;-85
2021/09/16 03:54:35;;;;;;;;;;;12.10;99.90;;;;;;5002116;28;20424;-85
2021/09/16 03:57:02;;;;;;;;;;;12.20;99.90;;;;;;5012868;28;20403;-86
2021/09/16 03:59:29;;;;;;;;;;;12.10;99.90;;;;;;5004827;28;19957;-83
2021/09/16 04:01:55;;;;;;;;;;;12.10;99.90;;;;;;5012439;28;20399;-84
2021/09/16 04:04:23;;;;;;;;;;;12.10;99.90;;;;;;5010941;28;20008;-84
2021/09/16 04:06:52;;;;;;;;;;;12.10;99.90;;;;;;5010916;28;19980;-83
2021/09/16 04:09:19;;;;;;;;;;;12.10;99.90;;;;;;5011602;28;20016;-84
2021/09/16 04:11:46;;;;;;;;;;;12.20;99.90;;;;;;5012711;28;19937;-82
2021/09/16 04:14:13;;;;;;;;;;;12.20;99.90;;;;;;5011983;28;20015;-85
2021/09/16 04:16:40;;;;;;;;;;;12.30;99.90;;;;;;5013831;28;20023;-84
2021/09/16 04:19:09;;;;;;;;;;;12.30;99.90;;;;;;5000709;28;20012;-84
2021/09/16 04:21:39;;;;;;;;;;;12.30;99.90;;;;;;5009609;28;20010;-83
2021/09/16 04:24:16;;;;;;;;;;;12.30;99.90;;;;;;5008696;28;19925;-83
2021/09/16 04:26:43;;;;;;;;;;;12.30;99.90;;;;;;5013492;28;19925;-84
2021/09/16 04:29:26;;;;;;;;;;;12.40;99.90;;;;;;5013099;28;19929;-86
2021/09/16 04:31:59;;;;;;;;;;;12.40;99.90;;;;;;5014231;28;19926;-85
2021/09/16 04:34:28;;;;;;;;;;;12.30;99.90;;;;;;5004659;28;19925;-86
2021/09/16 04:36:58;;;;;;;;;;;12.30;99.90;;;;;;5009051;28;20004;-84
2021/09/16 04:39:40;;;;;;;;;;;12.30;99.90;;;;;;5001143;28;20305;-84
2021/09/16 04:42:16;;;;;;;;;;;12.30;99.90;;;;;;4993651;28;19926;-86
2021/09/16 04:44:42;;;;;;;;;;;12.30;99.90;;;;;;5009195;28;19934;-81
2021/09/16 04:47:11;;;;;;;;;;;12.40;99.90;;;;;;5008285;28;19926;-85
2021/09/16 04:49:47;;;;;;;;;;;12.40;99.90;;;;;;4998741;28;20452;-85
2021/09/16 04:52:14;;;;;;;;;;;12.50;99.90;;;;;;5003063;28;20065;-85
2021/09/16 04:54:43;;;;;;;;;;;12.60;99.90;;;;;;5006609;28;20348;-86
2021/09/16 04:57:11;;;;;;;;;;;12.60;99.90;;;;;;5013404;28;19929;-84
2021/09/16 04:59:43;;;;;;;;;;;12.70;99.90;;;;;;5003297;28;19925;-84
2021/09/16 05:02:13;;;;;;;;;;;12.70;99.90;;;;;;5011906;28;20012;-85
2021/09/16 05:04:41;;;;;;;;;;;12.70;99.90;;;;;;5007125;28;19934;-84
2021/09/16 05:07:08;;;;;;;;;;;12.80;99.90;;;;;;5005554;28;19933;-85
2021/09/16 05:09:35;;;;;;;;;;;12.80;99.90;;;;;;5009027;28;19987;-85
2021/09/16 05:12:02;;;;;;;;;;;12.80;99.90;;;;;;5013445;28;19925;-87
2021/09/16 05:14:30;;;;;;;;;;;12.90;99.90;;;;;;5007232;28;19965;-87
2021/09/16 05:16:57;;;;;;;;;;;12.90;99.90;;;;;;5002167;28;19925;-87
2021/09/16 05:19:24;;;;;;;;;;;12.90;99.90;;;;;;5003982;28;19925;-89
2021/09/16 05:21:51;;;;;;;;;;;13.00;99.90;;;;;;5001775;28;19946;-87
2021/09/16 05:24:18;;;;;;;;;;;13.00;99.90;;;;;;4993825;28;19988;-87
2021/09/16 05:26:45;;;;;;;;;;;13.00;99.90;;;;;;5002439;28;20032;-87
2021/09/16 05:29:12;;;;;;;;;;;13.00;99.90;;;;;;5000295;28;19937;-88
2021/09/16 05:31:40;;;;;;;;;;;13.00;99.90;;;;;;5007027;28;19932;-89
2021/09/16 05:34:07;;;;;;;;;;;13.10;99.90;;;;;;5002196;28;19984;-89
2021/09/16 05:36:43;;;;;;;;;;;13.10;99.90;;;;;;5009270;28;19929;-89
2021/09/16 05:39:12;;;;;;;;;;;13.10;99.90;;;;;;5003158;28;19937;-88
2021/09/16 05:44:20;;;;;;;;;;;13.20;99.90;;;;;;5003453;28;19925;-88
2021/09/16 05:46:48;;;;;;;;;;;13.20;99.90;;;;;;5002891;28;19926;-90
2021/09/16 05:49:16;;;;;;;;;;;13.20;99.90;;;;;;5006303;28;19929;-89
2021/09/16 05:51:43;;;;;;;;;;;13.30;99.90;;;;;;5004312;28;19980;-89
2021/09/16 05:54:10;;;;;;;;;;;13.40;99.90;;;;;;5000949;28;19926;-87
2021/09/16 05:56:37;;;;;;;;;;;13.40;99.90;;;;;;4995557;28;19980;-87
2021/09/16 05:59:04;;;;;;;;;;;13.40;99.90;;;;;;5000751;28;20309;-86
2021/09/16 06:01:30;;;;;;;;;;;13.50;99.90;;;;;;5001237;28;20286;-85
2021/09/16 06:03:59;;;;;;;;;;;13.50;99.90;;;;;;5004662;28;19933;-87
2021/09/16 06:06:25;;;;;;;;;;;13.60;99.90;;;;;;5002259;28;19948;-86
2021/09/16 06:08:55;;;;;;;;;;;13.60;99.90;;;;;;5003276;28;19926;-87
2021/09/16 06:11:22;;;;;;;;;;;13.60;99.90;;;;;;4999448;28;20013;-85
2021/09/16 06:13:49;;;;;;;;;;;13.60;99.90;;;;;;5003736;28;19925;-85
2021/09/16 06:16:15;;;;;;;;;;;13.70;99.90;;;;;;5000640;28;19940;-83
2021/09/16 06:18:42;;;;;;;;;;;13.80;99.90;;;;;;4998845;28;19936;-87
2021/09/16 06:21:10;;;;;;;;;;;13.80;99.90;;;;;;5004901;28;19930;-86
2021/09/16 06:23:37;;;;;;;;;;;13.90;99.90;;;;;;5005352;28;20323;-89
2021/09/16 06:26:04;;;;;;;;;;;14.00;99.90;;;;;;5001453;28;19932;-88
2021/09/16 06:28:31;;;;;;;;;;;14.10;99.90;;;;;;5002838;28;20323;-85
2021/09/16 06:30:58;;;;;;;;;;;14.20;99.90;;;;;;5005934;28;19932;-88
2021/09/16 06:33:24;;;;;;;;;;;14.30;99.90;;;;;;5004395;28;19932;-87
2021/09/16 06:35:51;;;;;;;;;;;14.30;99.90;;;;;;4999244;28;19936;-87
2021/09/16 06:38:19;;;;;;;;;;;14.40;99.90;;;;;;5007250;28;19926;-88
2021/09/16 06:40:46;;;;;;;;;;;14.40;99.90;;;;;;4998929;28;19930;-88
2021/09/16 06:43:13;;;;;;;;;;;14.50;99.90;;;;;;4995226;28;20269;-87
2021/09/16 06:45:40;;;;;;;;;;;14.60;99.90;;;;;;5006572;28;19929;-87
2021/09/16 06:48:07;;;;;;;;;;;14.70;99.90;;;;;;5008524;28;19926;-88
2021/09/16 06:50:34;;;;;;;;;;;14.90;99.90;;;;;;5010739;28;20037;-86
2021/09/16 06:53:01;;;;;;;;;;;14.90;99.90;;;;;;5006499;28;20027;-88
2021/09/16 06:55:29;;;;;;;;;;;15.00;99.90;;;;;;5012839;28;20017;-89
2021/09/16 06:57:56;;;;;;;;;;;15.00;99.90;;;;;;5012378;28;19984;-88
2021/09/16 07:00:23;;;;;;;;;;;15.20;99.90;;;;;;5010555;28;20008;-88
2021/09/16 07:02:50;;;;;;;;;;;15.40;99.90;;;;;;5007471;28;19979;-88
2021/09/16 07:05:17;;;;;;;;;;;15.60;99.90;;;;;;5015052;28;19929;-87
2021/09/16 07:07:44;;;;;;;;;;;15.70;99.90;;;;;;5013966;28;20003;-88
2021/09/16 07:10:11;;;;;;;;;;;16.00;99.90;;;;;;5003026;28;19933;-88
2021/09/16 07:12:39;;;;;;;;;;;16.10;99.90;;;;;;5010195;28;19925;-88
2021/09/16 07:15:07;;;;;;;;;;;16.30;99.90;;;;;;5014800;28;19941;-89
2021/09/16 07:17:34;;;;;;;;;;;16.30;99.90;;;;;;5006771;28;19936;-89
2021/09/16 07:20:01;;;;;;;;;;;16.30;99.90;;;;;;5015006;28;20327;-83
2021/09/16 07:22:28;;;;;;;;;;;16.30;99.90;;;;;;5015969;28;19944;-85
2021/09/16 07:24:54;;;;;;;;;;;16.80;99.90;;;;;;5010860;28;19929;-87
2021/09/16 07:27:21;;;;;;;;;;;17.70;99.90;;;;;;5009118;28;19933;-85
2021/09/16 07:29:50;;;;;;;;;;;18.10;99.90;;;;;;5000612;28;19926;-85
2021/09/16 07:32:17;;;;;;;;;;;18.40;99.90;;;;;;5010624;28;19937;-85
2021/09/16 07:34:44;;;;;;;;;;;19.20;99.90;;;;;;5004245;28;19933;-84
2021/09/16 07:37:10;;;;;;;;;;;20.40;99.90;;;;;;5004814;28;19933;-84
2021/09/16 07:39:37;;;;;;;;;;;21.40;99.90;;;;;;5009129;28;19929;-82
2021/09/16 07:42:04;;;;;;;;;;;22.90;99.90;;;;;;5002948;28;19925;-83
2021/09/16 07:44:31;;;;;;;;;;;24.00;99.90;;;;;;5002459;28;19955;-83
2021/09/16 07:46:59;;;;;;;;;;;24.90;99.30;;;;;;5010187;28;19932;-83
2021/09/16 07:49:26;;;;;;;;;;;25.60;96.50;;;;;;5003218;28;19933;-82
2021/09/16 07:51:53;;;;;;;;;;;25.00;93.70;;;;;;5003870;28;20316;-84
2021/09/16 07:54:20;;;;;;;;;;;23.80;95.00;;;;;;5008117;28;20355;-85
2021/09/16 07:56:46;;;;;;;;;;;23.40;96.90;;;;;;5019388;28;19929;-84
2021/09/16 07:59:14;;;;;;;;;;;23.90;98.00;;;;;;5021729;28;20358;-84
2021/09/16 08:01:40;;;;;;;;;;;25.40;95.20;;;;;;5011445;28;20011;-83
2021/09/16 08:04:09;;;;;;;;;;;26.10;92.50;;;;;;5006983;28;19932;-82
2021/09/16 08:06:36;;;;;;;;;;;26.60;91.00;;;;;;5011080;28;19934;-81
2021/09/16 08:09:03;;;;;;;;;;;25.80;90.50;;;;;;5000168;28;19930;-82
2021/09/16 08:11:30;;;;;;;;;;;26.30;90.70;;;;;;5013019;28;19929;-79
2021/09/16 08:13:57;;;;;;;;;;;26.90;88.10;;;;;;5008971;28;19971;-82
2021/09/16 08:16:24;;;;;;;;;;;27.30;85.00;;;;;;5012656;28;19929;-81
2021/09/16 08:18:51;;;;;;;;;;;27.70;81.00;;;;;;5005937;28;19937;-84
2021/09/16 08:21:19;;;;;;;;;;;27.00;80.70;;;;;;5011280;28;19962;-83
2021/09/16 08:23:46;;;;;;;;;;;26.10;83.00;;;;;;5005825;28;19926;-83
2021/09/16 08:26:13;;;;;;;;;;;26.30;83.50;;;;;;5008584;28;19936;-81
2021/09/16 08:28:40;;;;;;;;;;;26.00;83.40;;;;;;5014386;28;19926;-83
2021/09/16 08:31:07;;;;;;;;;;;26.00;84.40;;;;;;5009527;28;20044;-81
2021/09/16 08:33:34;;;;;;;;;;;26.50;82.40;;;;;;5010081;28;19930;-83
2021/09/16 08:36:01;;;;;;;;;;;26.80;82.90;;;;;;5014576;28;19932;-84
2021/09/16 08:38:30;;;;;;;;;;;27.20;79.70;;;;;;5004335;28;19988;-85
2021/09/16 08:40:57;;;;;;;;;;;27.50;78.10;;;;;;5012628;28;19929;-83
2021/09/16 08:43:28;;;;;;;;;;;27.60;75.00;;;;;;4989948;28;19926;-85
2021/09/16 08:45:54;;;;;;;;;;;27.10;77.60;;;;;;5011913;28;22189;-84
2021/09/16 08:48:21;;;;;;;;;;;27.30;75.60;;;;;;5009984;28;19925;-83
2021/09/16 08:50:48;;;;;;;;;;;27.00;76.10;;;;;;5009309;28;19933;-82
2021/09/16 08:53:17;;;;;;;;;;;26.90;76.50;;;;;;5011139;28;19933;-82
2021/09/16 08:55:46;;;;;;;;;;;26.80;75.80;;;;;;5011731;28;20298;-81
2021/09/16 08:58:12;;;;;;;;;;;26.50;70.70;;;;;;5007380;28;19925;-86
2021/09/16 09:00:39;;;;;;;;;;;26.20;71.90;;;;;;5005259;28;19932;-82
2021/09/16 09:03:07;;;;;;;;;;;26.00;72.90;;;;;;5008079;28;20348;-76
2021/09/16 09:05:33;;;;;;;;;;;26.00;74.20;;;;;;5013094;28;20418;-74
2021/09/16 09:08:01;;;;;;;;;;;26.60;72.60;;;;;;5004499;28;19941;-79
2021/09/16 09:10:36;;;;;;;;;;;26.90;69.60;;;;;;4995687;28;19930;-83
2021/09/16 09:13:05;;;;;;;;;;;26.70;69.80;;;;;;5000388;28;19948;-81
2021/09/16 09:15:31;;;;;;;;;;;26.30;69.60;;;;;;5002553;28;19965;-80
2021/09/16 09:18:05;;;;;;;;;;;25.70;73.50;;;;;;5007934;28;20397;-84
2021/09/16 09:20:33;;;;;;;;;;;25.10;74.40;;;;;;5013211;28;19957;-84
2021/09/16 09:23:00;;;;;;;;;;;24.60;76.70;;;;;;5012479;28;20360;-86
2021/09/16 09:25:29;;;;;;;;;;;24.60;79.10;;;;;;5000924;28;19938;-86
2021/09/16 09:27:56;;;;;;;;;;;25.30;74.10;;;;;;5007481;28;19929;-85
2021/09/16 09:30:27;;;;;;;;;;;26.00;71.20;;;;;;5006696;28;19925;-83
2021/09/16 09:32:54;;;;;;;;;;;26.00;72.20;;;;;;5010938;28;20424;-84
2021/09/16 09:35:26;;;;;;;;;;;25.70;67.40;;;;;;5007153;28;19932;-82
2021/09/16 09:37:53;;;;;;;;;;;25.00;72.60;;;;;;5006709;28;19937;-86
2021/09/16 09:40:25;;;;;;;;;;;24.90;75.40;;;;;;5010500;28;19937;-86
2021/09/16 09:42:52;;;;;;;;;;;24.80;76.20;;;;;;4999246;28;20411;-86
2021/09/16 09:45:19;;;;;;;;;;;25.10;75.90;;;;;;5000301;28;19932;-78
2021/09/16 09:47:48;;;;;;;;;;;25.60;74.50;;;;;;5008873;28;19929;-84
2021/09/16 09:50:20;;;;;;;;;;;25.70;73.60;;;;;;5000235;28;20012;-83
2021/09/16 09:52:47;;;;;;;;;;;25.50;70.40;;;;;;5001636;28;20019;-86
2021/09/16 09:55:14;;;;;;;;;;;25.80;71.60;;;;;;5004168;28;19930;-84
2021/09/16 09:57:41;;;;;;;;;;;25.60;66.30;;;;;;5008182;28;20454;-81
2021/09/16 10:00:09;;;;;;;;;;;24.80;71.20;;;;;;5000407;28;20403;-83
2021/09/16 10:02:44;;;;;;;;;;;24.90;70.50;;;;;;5010505;28;20016;-84
2021/09/16 10:05:20;;;;;;;;;;;24.40;71.30;;;;;;4986345;28;19980;-84
2021/09/16 10:07:47;;;;;;;;;;;24.30;69.10;;;;;;5008999;28;20447;-85
2021/09/16 10:10:14;;;;;;;;;;;24.30;69.80;;;;;;5002424;28;19929;-84
2021/09/16 10:12:42;;;;;;;;;;;23.20;74.20;;;;;;4997234;28;19980;-82
2021/09/16 10:15:10;;;;;;;;;;;22.50;78.20;;;;;;5008068;28;19972;-82
2021/09/16 10:17:38;;;;;;;;;;;22.20;80.10;;;;;;5008464;28;19929;-83
2021/09/16 10:20:06;;;;;;;;;;;21.90;82.20;;;;;;5009088;28;19933;-85
2021/09/16 10:22:34;;;;;;;;;;;21.80;84.60;;;;;;5011330;28;19925;-85
2021/09/16 10:25:02;;;;;;;;;;;21.80;85.90;;;;;;5003434;28;20381;-83
2021/09/16 10:27:34;;;;;;;;;;;22.00;84.60;;;;;;5005098;28;20438;-86
2021/09/16 10:30:21;;;;;;;;;;;21.40;88.30;;;;;;5007802;28;19926;-86
2021/09/16 10:32:59;;;;;;;;;;;21.50;88.40;;;;;;5000938;28;19965;-86
2021/09/16 10:35:26;;;;;;;;;;;21.50;89.10;;;;;;4997961;28;19926;-86
2021/09/16 10:37:54;;;;;;;;;;;21.60;88.70;;;;;;5002983;28;19936;-85
2021/09/16 10:40:23;;;;;;;;;;;21.60;89.70;;;;;;5006697;28;19933;-85
2021/09/16 10:42:51;;;;;;;;;;;21.70;89.80;;;;;;4997049;28;19926;-85
2021/09/16 10:45:26;;;;;;;;;;;21.60;90.50;;;;;;5002674;28;20293;-83
2021/09/16 10:48:08;;;;;;;;;;;21.60;90.30;;;;;;5007709;28;19930;-82
2021/09/16 10:50:41;;;;;;;;;;;21.40;91.40;;;;;;5006945;28;19980;-81
2021/09/16 10:53:41;;;;;;;;;;;21.80;91.30;;;;;;5000471;28;19945;-84
2021/09/16 10:56:23;;;;;;;;;;;22.20;90.20;;;;;;4959486;28;19926;-83
2021/09/16 10:58:53;;;;;;;;;;;22.50;90.10;;;;;;4960009;28;20432;-83
2021/09/16 11:01:35;;;;;;;;;;;22.70;89.90;;;;;;4979612;28;19929;-83
2021/09/16 11:04:02;;;;;;;;;;;22.90;89.50;;;;;;5001402;28;20009;-84
2021/09/16 11:06:46;;;;;;;;;;;22.90;87.40;;;;;;4999928;28;19941;-83
2021/09/16 11:09:13;;;;;;;;;;;22.10;86.00;;;;;;4995587;28;19926;-85
2021/09/16 11:11:51;;;;;;;;;;;21.40;89.80;;;;;;4999698;28;20028;-85
2021/09/16 11:14:42;;;;;;;;;;;21.40;89.30;;;;;;5004438;28;20628;-87
2021/09/16 11:17:11;;;;;;;;;;;21.30;90.10;;;;;;5000793;28;19933;-84
2021/09/16 11:19:45;;;;;;;;;;;21.40;90.00;;;;;;5000218;28;19930;-85
2021/09/16 11:22:13;;;;;;;;;;;21.50;88.50;;;;;;4998841;28;19929;-83
2021/09/16 11:24:40;;;;;;;;;;;21.70;88.60;;;;;;4999342;28;19930;-84
2021/09/16 11:27:08;;;;;;;;;;;21.90;87.80;;;;;;5003701;28;19938;-80
2021/09/16 11:29:43;;;;;;;;;;;21.90;87.20;;;;;;5004296;28;19929;-85
2021/09/16 11:32:10;;;;;;;;;;;22.40;85.80;;;;;;4999098;28;19979;-83
2021/09/16 11:34:37;;;;;;;;;;;22.50;85.00;;;;;;5007154;28;19950;-82
2021/09/16 11:37:08;;;;;;;;;;;22.50;85.60;;;;;;5007855;28;19944;-78
2021/09/16 11:39:35;;;;;;;;;;;22.20;85.70;;;;;;5007392;28;19995;-82
2021/09/16 11:42:09;;;;;;;;;;;22.00;86.40;;;;;;5003463;28;19925;-84
2021/09/16 11:44:36;;;;;;;;;;;21.90;87.80;;;;;;5006585;28;20351;-81
2021/09/16 11:47:04;;;;;;;;;;;21.90;88.40;;;;;;5008521;28;19949;-81
2021/09/16 11:49:31;;;;;;;;;;;21.80;88.90;;;;;;5017058;28;19925;-81
2021/09/16 11:51:58;;;;;;;;;;;22.00;89.00;;;;;;5006940;28;20786;-79
2021/09/16 11:54:25;;;;;;;;;;;22.10;88.20;;;;;;5005958;28;20340;-81
2021/09/16 11:57:01;;;;;;;;;;;22.50;87.70;;;;;;5002294;28;19933;-82
2021/09/16 11:59:28;;;;;;;;;;;22.80;85.30;;;;;;5009579;28;20269;-78
2021/09/16 12:01:55;;;;;;;;;;;23.20;84.20;;;;;;5003606;28;19948;-82
2021/09/16 12:07:17;;;;;;;;;;;23.70;83.80;;;;;;5028524;28;19929;-80
2021/09/16 12:09:44;;;;;;;;;;;23.70;82.20;;;;;;5022447;27;19948;-81
2021/09/16 12:12:11;;;;;;;;;;;22.40;86.00;;;;;;5018661;28;19925;-83
2021/09/16 12:14:39;;;;;;;;;;;21.80;89.50;;;;;;5023206;28;19948;-79
2021/09/16 12:17:06;;;;;;;;;;;22.40;89.20;;;;;;5030207;28;19934;-85
2021/09/16 12:19:32;;;;;;;;;;;22.70;87.00;;;;;;5019435;28;19926;-82
2021/09/16 12:22:00;;;;;;;;;;;23.10;84.80;;;;;;5026239;28;19926;-78
2021/09/16 12:24:29;;;;;;;;;;;22.90;83.20;;;;;;5026823;28;19933;-84
2021/09/16 12:26:57;;;;;;;;;;;22.70;84.90;;;;;;5025302;28;19932;-85
2021/09/16 12:29:25;;;;;;;;;;;22.70;85.30;;;;;;5023060;28;19926;-84
2021/09/16 12:31:55;;;;;;;;;;;22.60;86.80;;;;;;5019771;28;19925;-81
2021/09/16 12:34:23;;;;;;;;;;;22.60;87.40;;;;;;5029835;28;19936;-84
2021/09/16 12:36:51;;;;;;;;;;;22.50;89.00;;;;;;5025550;28;19930;-82
2021/09/16 12:39:18;;;;;;;;;;;22.30;90.50;;;;;;5029774;28;19929;-81
2021/09/16 12:41:52;;;;;;;;;;;22.00;91.30;;;;;;5042614;28;19940;-81
2021/09/16 12:44:19;;;;;;;;;;;21.80;92.60;;;;;;5045414;28;19945;-82
2021/09/16 12:46:48;;;;;;;;;;;21.70;93.00;;;;;;5039355;28;19935;-83
2021/09/16 12:49:31;;;;;;;;;;;21.80;93.40;;;;;;5031991;28;19986;-84
2021/09/16 12:51:59;;;;;;;;;;;21.90;92.90;;;;;;5022855;28;19925;-82
2021/09/16 12:54:26;;;;;;;;;;;21.90;93.00;;;;;;5020456;28;19964;-83
2021/09/16 12:56:55;;;;;;;;;;;21.50;93.30;;;;;;5023471;28;19936;-81
2021/09/16 12:59:24;;;;;;;;;;;21.40;94.20;;;;;;5015703;28;19933;-83
2021/09/16 13:02:06;;;;;;;;;;;21.50;93.70;;;;;;5019150;28;20433;-82
2021/09/16 13:04:46;;;;;;;;;;;21.70;93.10;;;;;;5021301;28;20444;-84
2021/09/16 13:07:13;;;;;;;;;;;21.80;92.10;;;;;;5025827;28;19931;-82
2021/09/16 13:09:40;;;;;;;;;;;21.90;91.40;;;;;;5019900;28;19978;-83
2021/09/16 13:12:15;;;;;;;;;;;22.20;90.10;;;;;;5022156;27;20441;-86
2021/09/16 13:14:42;;;;;;;;;;;22.40;91.00;;;;;;5016526;28;19930;-83
2021/09/16 13:17:09;;;;;;;;;;;22.60;90.20;;;;;;5017420;28;20032;-81
2021/09/16 13:19:36;;;;;;;;;;;22.70;89.20;;;;;;5008946;28;19948;-82
2021/09/16 13:22:03;;;;;;;;;;;22.70;87.90;;;;;;5014749;28;19974;-83
2021/09/16 13:24:29;;;;;;;;;;;22.50;88.50;;;;;;5020182;28;20423;-81
2021/09/16 13:26:57;;;;;;;;;;;22.80;90.00;;;;;;5017793;28;19932;-84
2021/09/16 13:29:25;;;;;;;;;;;22.90;90.00;;;;;;5007422;28;19925;-82
2021/09/16 13:31:52;;;;;;;;;;;23.10;90.00;;;;;;5004769;28;19945;-80
2021/09/16 13:34:19;;;;;;;;;;;22.80;88.70;;;;;;5003564;28;20012;-80
2021/09/16 13:36:46;;;;;;;;;;;22.30;91.10;;;;;;5006852;28;20311;-81
2021/09/16 13:39:12;;;;;;;;;;;22.10;90.80;;;;;;5000078;28;19929;-81
2021/09/16 13:41:39;;;;;;;;;;;21.90;91.20;;;;;;5013978;28;19930;-85
2021/09/16 13:44:06;;;;;;;;;;;21.70;91.10;;;;;;5009353;28;19932;-84
2021/09/16 13:46:38;;;;;;;;;;;21.50;91.00;;;;;;5010022;28;19962;-80
2021/09/16 13:49:05;;;;;;;;;;;21.40;91.30;;;;;;5010127;28;19929;-85
2021/09/16 13:51:32;;;;;;;;;;;21.30;91.50;;;;;;5007198;28;20625;-83
2021/09/16 13:53:59;;;;;;;;;;;21.20;91.70;;;;;;5013318;28;19940;-85
2021/09/16 13:56:26;;;;;;;;;;;21.20;92.20;;;;;;4998935;28;19933;-81
2021/09/16 13:58:53;;;;;;;;;;;21.40;92.40;;;;;;5023183;28;19924;-82
2021/09/16 14:01:20;;;;;;;;;;;21.70;91.90;;;;;;5008460;28;19933;-83
2021/09/16 14:03:48;;;;;;;;;;;22.10;91.80;;;;;;5006964;28;19933;-81
2021/09/16 14:06:15;;;;;;;;;;;22.40;90.90;;;;;;5014896;28;19930;-81
2021/09/16 14:08:42;;;;;;;;;;;22.70;90.20;;;;;;5027922;28;19934;-74
2021/09/16 14:11:09;;;;;;;;;;;23.00;89.80;;;;;;5013512;28;20410;-76
2021/09/16 14:13:36;;;;;;;;;;;23.10;87.60;;;;;;5005833;28;19929;-77
2021/09/16 14:16:03;;;;;;;;;;;23.20;85.00;;;;;;4996899;28;20372;-81
2021/09/16 14:18:30;;;;;;;;;;;23.20;85.70;;;;;;5018586;28;19928;-84
2021/09/16 14:20:58;;;;;;;;;;;22.80;86.00;;;;;;5017948;28;19970;-81
2021/09/16 14:23:25;;;;;;;;;;;22.50;87.30;;;;;;5018621;28;20194;-81
2021/09/16 14:25:52;;;;;;;;;;;22.30;89.10;;;;;;5008158;28;19933;-79
2021/09/16 14:28:18;;;;;;;;;;;22.20;89.20;;;;;;5005622;28;19940;-77
2021/09/16 14:30:45;;;;;;;;;;;22.20;89.70;;;;;;5009414;28;19934;-82
2021/09/16 14:33:12;;;;;;;;;;;22.20;88.90;;;;;;5009835;28;19986;-76
2021/09/16 14:35:40;;;;;;;;;;;22.30;86.30;;;;;;5012760;28;19925;-82
2021/09/16 14:38:08;;;;;;;;;;;22.70;86.80;;;;;;5006058;28;19937;-79
2021/09/16 14:40:35;;;;;;;;;;;23.00;86.10;;;;;;5016660;28;19941;-81
2021/09/16 14:43:02;;;;;;;;;;;23.20;84.10;;;;;;5010586;28;19938;-81
2021/09/16 14:45:30;;;;;;;;;;;23.30;83.70;;;;;;5003771;28;19926;-80
2021/09/16 14:47:57;;;;;;;;;;;23.30;84.10;;;;;;5006249;28;19929;-80
2021/09/16 14:50:23;;;;;;;;;;;23.30;83.80;;;;;;5012831;28;19933;-80
2021/09/16 14:52:50;;;;;;;;;;;23.10;83.10;;;;;;5001705;28;19925;-81